Time;durP1;ratioP1;P1;durP2;ratioP2;P2;SDS_P1;SDS_P2;PMS_P1;PMS_P2;Temp;Humidity;BMP_temperature;BMP_pressure;BME280_temperature;BME280_humidity;BME280_pressure;Samples;Min_cycle;Max_cycle;Signal;HPM_P1;HPM_P2
2021/05/12 00:02:25;;;;;;;2.90;2.70;;;12.00;99.90;;;;;;4880149;29;20234;-66
2021/05/12 00:04:51;;;;;;;3.60;3.30;;;12.00;99.90;;;;;;4884348;29;20280;-66
2021/05/12 00:07:17;;;;;;;3.20;3.00;;;11.90;99.90;;;;;;4894118;29;20526;-66
2021/05/12 00:09:43;;;;;;;3.77;3.50;;;12.00;99.90;;;;;;4885501;29;20234;-67
2021/05/12 00:12:09;;;;;;;5.50;3.43;;;12.00;99.90;;;;;;4887601;29;20439;-67
2021/05/12 00:14:36;;;;;;;4.10;3.37;;;12.00;99.90;;;;;;4892297;29;20446;-67
2021/05/12 00:17:07;;;;;;;5.00;3.60;;;12.00;99.90;;;;;;4887672;29;20445;-66
2021/05/12 00:19:36;;;;;;;3.27;3.07;;;12.10;99.90;;;;;;4886224;29;20473;-66
2021/05/12 00:24:37;;;;;;;3.57;3.30;;;12.00;99.90;;;;;;4892178;29;20937;-66
2021/05/12 00:27:03;;;;;;;3.70;3.40;;;12.00;99.90;;;;;;4895667;29;20431;-65
2021/05/12 00:29:29;;;;;;;3.80;2.93;;;12.00;99.90;;;;;;4895240;29;20442;-66
2021/05/12 00:31:54;;;;;;;3.20;2.90;;;12.00;99.90;;;;;;4892117;29;20451;-66
2021/05/12 00:34:20;;;;;;;5.93;3.47;;;11.90;99.90;;;;;;4946496;23;20365;-65
2021/05/12 00:36:46;;;;;;;3.53;3.30;;;11.80;99.90;;;;;;4910615;29;20179;-65
2021/05/12 00:39:11;;;;;;;3.50;3.20;;;11.80;99.90;;;;;;4913830;29;20214;-65
2021/05/12 00:41:39;;;;;;;2.90;2.70;;;11.70;99.90;;;;;;4903159;29;20691;-66
2021/05/12 00:44:17;;;;;;;3.13;2.83;;;11.70;99.90;;;;;;4894677;29;20685;-65
2021/05/12 00:46:48;;;;;;;2.63;2.50;;;11.70;99.90;;;;;;4882346;29;20511;-65
2021/05/12 00:49:14;;;;;;;2.33;2.23;;;11.70;99.90;;;;;;4879262;29;20436;-65
2021/05/12 00:51:41;;;;;;;3.10;2.90;;;11.70;99.90;;;;;;4884162;29;20432;-66
2021/05/12 00:54:07;;;;;;;2.80;2.60;;;11.60;99.90;;;;;;4894042;29;20207;-65
2021/05/12 00:56:34;;;;;;;2.93;2.73;;;11.60;99.90;;;;;;4887866;29;20442;-65
2021/05/12 00:59:01;;;;;;;3.00;2.30;;;11.50;99.90;;;;;;4887152;29;20947;-65
2021/05/12 01:01:27;;;;;;;2.80;2.50;;;11.50;99.90;;;;;;4892110;29;20440;-65
2021/05/12 01:03:52;;;;;;;4.80;3.00;;;11.40;99.90;;;;;;4889200;29;20493;-66
2021/05/12 01:06:27;;;;;;;3.40;2.70;;;11.30;99.90;;;;;;4880649;29;20175;-65
2021/05/12 01:08:53;;;;;;;4.07;2.80;;;11.40;99.90;;;;;;4880430;29;20277;-65
2021/05/12 01:11:19;;;;;;;3.17;2.30;;;11.30;99.90;;;;;;4878480;29;20456;-65
2021/05/12 01:13:45;;;;;;;2.13;1.97;;;11.30;99.90;;;;;;4876692;29;20460;-66
2021/05/12 01:16:11;;;;;;;3.77;3.27;;;11.30;99.90;;;;;;4894626;29;20214;-65
2021/05/12 01:18:38;;;;;;;1.90;1.80;;;11.20;99.90;;;;;;4888908;29;20460;-66
2021/05/12 01:21:06;;;;;;;2.57;2.37;;;11.20;99.90;;;;;;4886324;29;20451;-66
2021/05/12 01:23:34;;;;;;;3.60;2.03;;;11.20;99.90;;;;;;4882859;29;20459;-66
2021/05/12 01:26:04;;;;;;;1.77;1.67;;;11.20;99.90;;;;;;4891114;29;20435;-66
2021/05/12 01:28:34;;;;;;;1.93;1.73;;;11.10;99.90;;;;;;4883693;29;20469;-66
2021/05/12 01:31:04;;;;;;;2.13;1.90;;;11.10;99.90;;;;;;4888509;29;20984;-65
2021/05/12 01:33:30;;;;;;;1.60;1.50;;;11.10;99.90;;;;;;4877190;29;20483;-65
2021/05/12 01:35:57;;;;;;;2.20;1.80;;;11.10;99.90;;;;;;4892554;29;20528;-66
2021/05/12 01:38:23;;;;;;;4.17;2.00;;;11.10;99.90;;;;;;4892140;29;20989;-66
2021/05/12 01:40:50;;;;;;;2.13;2.03;;;11.10;99.90;;;;;;4890453;29;20445;-66
2021/05/12 01:43:15;;;;;;;4.50;2.90;;;11.10;99.90;;;;;;4885350;29;20456;-66
2021/05/12 01:45:41;;;;;;;1.70;1.60;;;11.00;99.90;;;;;;4883145;29;20575;-66
2021/05/12 01:48:09;;;;;;;2.60;1.60;;;11.00;99.90;;;;;;4880223;29;20194;-66
2021/05/12 01:50:35;;;;;;;1.60;1.50;;;11.00;99.90;;;;;;4889701;29;20529;-65
2021/05/12 01:53:00;;;;;;;2.30;1.80;;;11.00;99.90;;;;;;4878479;29;20491;-66
2021/05/12 01:55:27;;;;;;;2.87;2.67;;;10.90;99.90;;;;;;4877816;29;20685;-66
2021/05/12 01:57:53;;;;;;;2.37;2.20;;;11.00;99.90;;;;;;4892858;29;20493;-65
2021/05/12 02:00:20;;;;;;;2.80;2.60;;;10.90;99.90;;;;;;4890515;29;20433;-66
2021/05/12 02:02:46;;;;;;;7.10;2.80;;;10.90;99.90;;;;;;4877274;29;20230;-66
2021/05/12 02:05:11;;;;;;;3.17;2.97;;;11.00;99.90;;;;;;4877378;29;20475;-66
2021/05/12 02:07:37;;;;;;;3.60;2.60;;;10.90;99.90;;;;;;4890848;29;20189;-66
2021/05/12 02:10:03;;;;;;;2.63;2.53;;;11.00;99.90;;;;;;4884952;29;20673;-66
2021/05/12 02:12:29;;;;;;;3.00;2.70;;;10.90;99.90;;;;;;4883612;29;20581;-66
2021/05/12 02:14:55;;;;;;;3.23;2.93;;;11.00;99.90;;;;;;4890636;29;20446;-66
2021/05/12 02:17:20;;;;;;;3.53;2.63;;;11.00;99.90;;;;;;4887274;29;20195;-66
2021/05/12 02:19:47;;;;;;;3.33;3.03;;;11.10;99.90;;;;;;4881167;29;20211;-66
2021/05/12 02:22:13;;;;;;;4.93;2.80;;;11.10;99.90;;;;;;4894353;29;20187;-66
2021/05/12 02:24:38;;;;;;;3.53;2.33;;;11.20;99.90;;;;;;4884461;29;20467;-66
2021/05/12 02:27:04;;;;;;;3.00;2.80;;;11.20;99.90;;;;;;4885186;29;20275;-66
2021/05/12 02:29:29;;;;;;;2.67;2.47;;;11.20;99.90;;;;;;4884088;29;20187;-66
2021/05/12 02:31:55;;;;;;;3.17;2.97;;;11.10;99.90;;;;;;4879304;29;20194;-66
2021/05/12 02:34:20;;;;;;;3.13;2.53;;;11.20;99.90;;;;;;4886453;29;20275;-66
2021/05/12 02:36:46;;;;;;;7.10;3.30;;;11.20;99.90;;;;;;4888459;29;20187;-66
2021/05/12 02:39:12;;;;;;;3.57;3.30;;;11.20;99.90;;;;;;4883166;29;20207;-66
2021/05/12 02:41:37;;;;;;;4.10;2.90;;;11.20;99.90;;;;;;4886010;29;20551;-66
2021/05/12 02:44:03;;;;;;;3.30;3.10;;;11.20;99.90;;;;;;4893336;29;20207;-66
2021/05/12 02:46:28;;;;;;;3.50;3.30;;;11.20;99.90;;;;;;4877971;29;20175;-66
2021/05/12 02:48:54;;;;;;;3.70;2.97;;;11.10;99.90;;;;;;4879991;29;20208;-66
2021/05/12 02:51:19;;;;;;;3.60;3.30;;;11.20;99.90;;;;;;4889841;29;20218;-66
2021/05/12 02:53:45;;;;;;;7.10;3.47;;;11.20;99.90;;;;;;4896855;29;20293;-66
2021/05/12 02:56:10;;;;;;;4.00;3.60;;;11.10;99.90;;;;;;4895202;29;20206;-66
2021/05/12 02:58:36;;;;;;;3.10;2.90;;;11.10;99.90;;;;;;4884985;29;20202;-66
2021/05/12 03:01:02;;;;;;;3.23;2.77;;;11.10;99.90;;;;;;4897815;29;20321;-66
2021/05/12 03:03:27;;;;;;;3.50;3.30;;;11.10;99.90;;;;;;4897284;29;20229;-66
2021/05/12 03:05:53;;;;;;;3.53;3.23;;;11.10;99.90;;;;;;4882365;29;20533;-66
2021/05/12 03:08:18;;;;;;;3.80;3.40;;;11.10;99.90;;;;;;4898873;29;20242;-66
2021/05/12 03:10:44;;;;;;;7.40;4.37;;;11.00;99.90;;;;;;4889651;29;20175;-66
2021/05/12 03:13:09;;;;;;;4.63;4.03;;;11.00;99.90;;;;;;4898435;29;20207;-66
2021/05/12 03:15:36;;;;;;;4.00;3.60;;;11.00;99.90;;;;;;4897031;29;20194;-66
2021/05/12 03:18:02;;;;;;;6.80;4.33;;;11.00;99.90;;;;;;4884169;29;20302;-65
2021/05/12 03:20:28;;;;;;;6.33;4.50;;;11.00;99.90;;;;;;4892084;29;20443;-65
2021/05/12 03:22:55;;;;;;;4.73;4.43;;;11.00;99.90;;;;;;4894945;29;20461;-66
2021/05/12 03:25:21;;;;;;;6.50;5.50;;;11.00;99.90;;;;;;4888399;29;20443;-66
2021/05/12 03:27:46;;;;;;;7.60;5.40;;;11.00;99.90;;;;;;4897826;29;20514;-66
2021/05/12 03:30:19;;;;;;;7.73;6.20;;;11.00;99.90;;;;;;4883986;29;20661;-66
2021/05/12 03:32:45;;;;;;;7.03;6.43;;;11.00;99.90;;;;;;4889370;29;20725;-66
2021/05/12 03:35:11;;;;;;;7.17;6.03;;;10.90;99.90;;;;;;4895056;29;20435;-66
2021/05/12 03:37:37;;;;;;;9.23;6.30;;;10.90;99.90;;;;;;4884304;29;20231;-66
2021/05/12 03:40:05;;;;;;;10.13;6.50;;;10.90;99.90;;;;;;4881633;29;20435;-66
2021/05/12 03:42:30;;;;;;;7.07;6.47;;;11.00;99.90;;;;;;4892594;29;20180;-65
2021/05/12 03:44:56;;;;;;;8.53;7.43;;;10.90;99.90;;;;;;4887654;29;20798;-66
2021/05/12 03:47:22;;;;;;;9.50;8.00;;;10.90;99.90;;;;;;4886341;29;20184;-66
2021/05/12 03:49:48;;;;;;;8.10;7.07;;;10.90;99.90;;;;;;4881248;29;20969;-65
2021/05/12 03:52:13;;;;;;;7.80;6.90;;;11.00;99.90;;;;;;4891532;29;20191;-65
2021/05/12 03:54:39;;;;;;;9.20;7.83;;;11.00;99.90;;;;;;4890523;29;20535;-65
2021/05/12 03:57:05;;;;;;;9.70;8.70;;;10.90;99.90;;;;;;4886230;29;20209;-66
2021/05/12 03:59:30;;;;;;;9.50;7.53;;;11.00;99.90;;;;;;4884359;29;20217;-66
2021/05/12 04:01:56;;;;;;;8.23;7.40;;;10.90;99.90;;;;;;4892633;29;20435;-65
2021/05/12 04:04:21;;;;;;;8.37;7.40;;;10.90;99.90;;;;;;4878086;29;20225;-65
2021/05/12 04:06:48;;;;;;;11.37;8.90;;;10.90;99.90;;;;;;4884612;29;20602;-65
2021/05/12 04:09:14;;;;;;;8.30;7.27;;;10.90;99.90;;;;;;4888758;29;20214;-66
2021/05/12 04:11:41;;;;;;;11.20;9.40;;;10.90;99.90;;;;;;4891931;29;21023;-65
2021/05/12 04:14:07;;;;;;;8.43;7.70;;;10.90;99.90;;;;;;4882520;29;20587;-65
2021/05/12 04:16:33;;;;;;;8.70;7.87;;;10.90;99.90;;;;;;4891520;29;20439;-66
2021/05/12 04:18:59;;;;;;;11.57;9.50;;;10.90;99.90;;;;;;4889005;29;20211;-66
2021/05/12 04:21:24;;;;;;;8.90;8.00;;;11.00;99.90;;;;;;4893627;29;20185;-65
2021/05/12 04:23:50;;;;;;;10.27;9.27;;;11.00;99.90;;;;;;4895891;29;20451;-66
2021/05/12 04:26:15;;;;;;;12.23;8.30;;;11.00;99.90;;;;;;4891037;29;20194;-65
2021/05/12 04:28:41;;;;;;;14.43;8.20;;;11.10;99.90;;;;;;4895073;29;20187;-65
2021/05/12 04:31:06;;;;;;;8.77;7.80;;;11.00;99.90;;;;;;4884115;29;20190;-65
2021/05/12 04:33:32;;;;;;;8.23;6.80;;;11.00;99.90;;;;;;4882266;29;20214;-65
2021/05/12 04:35:57;;;;;;;12.63;9.37;;;11.10;99.90;;;;;;4885777;29;20186;-66
2021/05/12 04:38:23;;;;;;;9.50;8.43;;;11.10;99.90;;;;;;4897201;29;20210;-66
2021/05/12 04:40:48;;;;;;;9.37;8.47;;;11.10;99.90;;;;;;4881736;29;20654;-66
2021/05/12 04:43:14;;;;;;;9.17;7.40;;;11.20;99.90;;;;;;4895473;29;20208;-65
2021/05/12 04:45:39;;;;;;;8.17;7.50;;;11.30;99.90;;;;;;4895738;29;20190;-65
2021/05/12 04:48:05;;;;;;;7.60;6.80;;;11.30;99.90;;;;;;4896730;29;20183;-66
2021/05/12 04:50:33;;;;;;;9.77;8.30;;;11.30;99.90;;;;;;4896705;29;20186;-65
2021/05/12 04:53:00;;;;;;;8.93;7.60;;;11.30;99.90;;;;;;4895615;29;20459;-65
2021/05/12 04:55:26;;;;;;;8.27;7.47;;;11.30;99.90;;;;;;4882497;29;20431;-66
2021/05/12 04:57:52;;;;;;;7.53;6.83;;;11.30;99.90;;;;;;4896730;29;20439;-65
2021/05/12 05:00:20;;;;;;;8.53;7.20;;;11.50;99.90;;;;;;4884993;29;20508;-65
2021/05/12 05:02:46;;;;;;;10.30;6.93;;;11.50;99.90;;;;;;4890518;29;20282;-66
2021/05/12 05:05:14;;;;;;;8.70;7.90;;;11.50;99.90;;;;;;4895095;29;20931;-65
2021/05/12 05:07:39;;;;;;;11.00;7.37;;;11.40;99.90;;;;;;4896353;29;20427;-66
2021/05/12 05:10:06;;;;;;;8.33;7.37;;;11.30;99.90;;;;;;4878504;29;20960;-65
2021/05/12 05:12:32;;;;;;;13.40;7.37;;;11.30;99.90;;;;;;4891575;29;20518;-65
2021/05/12 05:14:58;;;;;;;8.00;7.10;;;11.20;99.90;;;;;;4880431;29;20445;-65
2021/05/12 05:17:26;;;;;;;8.77;6.23;;;11.20;99.90;;;;;;4885435;29;20439;-65
2021/05/12 05:19:53;;;;;;;7.23;6.23;;;11.20;99.90;;;;;;4887057;29;20467;-65
2021/05/12 05:22:20;;;;;;;9.53;6.80;;;11.20;99.90;;;;;;4886387;29;20853;-65
2021/05/12 05:24:46;;;;;;;8.23;7.40;;;11.20;99.90;;;;;;4893479;29;20510;-65
2021/05/12 05:27:11;;;;;;;6.60;5.90;;;11.20;99.90;;;;;;4887158;29;20440;-65
2021/05/12 05:29:37;;;;;;;7.70;7.00;;;11.20;99.90;;;;;;4877056;29;20195;-65
2021/05/12 05:32:03;;;;;;;7.70;6.90;;;11.20;99.90;;;;;;4892001;29;20179;-64
2021/05/12 05:34:28;;;;;;;7.90;7.10;;;11.20;99.90;;;;;;4894042;29;20739;-65
2021/05/12 05:36:54;;;;;;;11.27;7.80;;;11.20;99.90;;;;;;4895941;29;20443;-65
2021/05/12 05:39:19;;;;;;;7.40;6.23;;;11.30;99.90;;;;;;4885286;29;20198;-64
2021/05/12 05:41:45;;;;;;;7.30;6.60;;;11.20;99.90;;;;;;4889563;29;20186;-64
2021/05/12 05:44:10;;;;;;;9.50;5.47;;;11.20;99.90;;;;;;4881269;29;20203;-64
2021/05/12 05:46:36;;;;;;;13.13;7.90;;;11.30;99.90;;;;;;4890821;29;20187;-64
2021/05/12 05:49:02;;;;;;;7.17;6.27;;;11.50;99.90;;;;;;4885199;29;20645;-64
2021/05/12 05:51:27;;;;;;;10.03;7.63;;;11.50;99.90;;;;;;4880855;29;20187;-64
2021/05/12 05:53:53;;;;;;;6.37;5.27;;;11.50;99.90;;;;;;4889774;29;20209;-65
2021/05/12 05:56:18;;;;;;;5.50;5.00;;;11.50;99.90;;;;;;4884550;29;20245;-65
2021/05/12 05:58:44;;;;;;;9.37;5.90;;;11.40;99.90;;;;;;4876648;29;20302;-64
2021/05/12 06:01:09;;;;;;;5.67;5.07;;;11.60;99.90;;;;;;4892904;29;20187;-65
2021/05/12 06:03:35;;;;;;;6.03;5.10;;;11.60;99.90;;;;;;4879651;29;20211;-64
2021/05/12 06:06:00;;;;;;;5.97;4.77;;;11.50;99.90;;;;;;4878442;29;20195;-64
2021/05/12 06:08:26;;;;;;;6.07;5.47;;;11.50;99.90;;;;;;4889183;29;20191;-65
2021/05/12 06:10:51;;;;;;;5.93;5.33;;;11.30;99.90;;;;;;4879451;29;20195;-65
2021/05/12 06:13:17;;;;;;;5.90;4.83;;;11.30;99.90;;;;;;4885149;29;20238;-65
2021/05/12 06:15:42;;;;;;;5.73;4.13;;;11.40;99.90;;;;;;4893436;29;20214;-65
2021/05/12 06:18:08;;;;;;;5.20;4.70;;;11.50;99.90;;;;;;4885809;29;20242;-65
2021/05/12 06:20:34;;;;;;;4.97;4.47;;;11.50;99.90;;;;;;4882290;29;20627;-65
2021/05/12 06:23:01;;;;;;;5.23;4.73;;;11.60;99.90;;;;;;4894459;29;20273;-65
2021/05/12 06:25:27;;;;;;;4.40;4.00;;;11.60;99.90;;;;;;4877018;29;20432;-65
2021/05/12 06:27:52;;;;;;;6.57;4.67;;;11.70;99.90;;;;;;4891396;29;20502;-65
2021/05/12 06:30:18;;;;;;;7.03;4.20;;;11.70;99.90;;;;;;4885031;29;20241;-65
2021/05/12 06:35:09;;;;;;;6.00;4.40;;;11.70;99.90;;;;;;4929275;23;20232;-66
2021/05/12 06:37:35;;;;;;;4.97;4.57;;;11.70;99.90;;;;;;4899515;29;20461;-66
2021/05/12 06:40:00;;;;;;;7.93;4.67;;;11.70;99.90;;;;;;4905067;29;20512;-66
2021/05/12 06:42:26;;;;;;;6.70;5.57;;;11.60;99.90;;;;;;4912663;29;20273;-66
2021/05/12 06:44:51;;;;;;;5.70;5.17;;;11.50;99.90;;;;;;4891840;29;20685;-66
2021/05/12 06:47:17;;;;;;;4.40;4.00;;;11.60;99.90;;;;;;4879066;29;20277;-66
2021/05/12 06:49:42;;;;;;;4.93;4.23;;;11.60;99.90;;;;;;4889932;29;20191;-66
2021/05/12 06:52:08;;;;;;;5.60;4.50;;;11.60;99.90;;;;;;4893830;29;20209;-67
2021/05/12 06:54:33;;;;;;;9.73;4.60;;;11.60;99.90;;;;;;4889680;29;20204;-66
2021/05/12 06:56:59;;;;;;;5.07;4.67;;;11.70;99.90;;;;;;4885025;29;20190;-66
2021/05/12 06:59:24;;;;;;;5.03;4.60;;;11.70;99.90;;;;;;4882484;29;20214;-66
2021/05/12 07:01:52;;;;;;;5.40;4.03;;;11.80;99.90;;;;;;4891335;29;20301;-66
2021/05/12 07:04:17;;;;;;;4.37;3.87;;;11.90;99.90;;;;;;4891941;29;20195;-66
2021/05/12 07:06:43;;;;;;;5.97;4.03;;;11.90;99.90;;;;;;4881174;29;20436;-66
2021/05/12 07:09:09;;;;;;;17.17;4.70;;;11.90;99.90;;;;;;4884933;29;20192;-66
2021/05/12 07:11:34;;;;;;;4.20;3.80;;;11.90;99.90;;;;;;4893583;29;20570;-66
2021/05/12 07:14:00;;;;;;;4.30;3.60;;;12.00;99.90;;;;;;4884590;29;20206;-66
2021/05/12 07:16:25;;;;;;;6.13;4.43;;;12.00;99.90;;;;;;4890861;29;20202;-66
2021/05/12 07:18:51;;;;;;;4.20;3.90;;;11.90;99.90;;;;;;4883023;29;20285;-66
2021/05/12 07:21:16;;;;;;;6.93;3.77;;;11.90;99.90;;;;;;4891168;29;20266;-67
2021/05/12 07:23:45;;;;;;;6.57;4.63;;;12.00;99.90;;;;;;4886086;29;20361;-68
2021/05/12 07:26:11;;;;;;;6.13;3.83;;;12.00;99.90;;;;;;4888744;29;20184;-66
2021/05/12 07:28:37;;;;;;;4.43;4.03;;;12.10;99.90;;;;;;4885288;29;20448;-65
2021/05/12 07:31:03;;;;;;;3.83;3.53;;;12.00;99.90;;;;;;4884561;29;20442;-67
2021/05/12 07:33:28;;;;;;;4.40;4.10;;;11.90;99.90;;;;;;4892622;29;20217;-66
2021/05/12 07:35:54;;;;;;;5.73;4.67;;;11.90;99.90;;;;;;4891051;29;20183;-66
2021/05/12 07:38:19;;;;;;;5.67;4.40;;;12.00;99.90;;;;;;4895938;29;20198;-68
2021/05/12 07:40:45;;;;;;;5.17;3.87;;;12.10;99.90;;;;;;4886686;29;20262;-66
2021/05/12 07:43:12;;;;;;;7.07;4.30;;;12.10;99.90;;;;;;4893956;29;20274;-65
2021/05/12 07:45:38;;;;;;;11.33;4.57;;;11.90;99.90;;;;;;4892354;29;20259;-66
2021/05/12 07:48:05;;;;;;;6.70;4.63;;;11.80;99.90;;;;;;4879590;29;20435;-66
2021/05/12 07:50:31;;;;;;;5.03;4.53;;;11.90;99.90;;;;;;4891061;29;20815;-65
2021/05/12 07:52:58;;;;;;;11.73;5.17;;;11.80;99.90;;;;;;4896742;29;20431;-66
2021/05/12 07:55:24;;;;;;;9.47;4.33;;;11.60;99.90;;;;;;4897913;29;20277;-66
2021/05/12 07:57:49;;;;;;;4.80;3.80;;;11.60;99.90;;;;;;4883116;29;20543;-65
2021/05/12 08:00:15;;;;;;;4.87;4.37;;;11.70;99.90;;;;;;4888868;29;21028;-66
2021/05/12 08:02:41;;;;;;;4.90;4.20;;;11.60;99.90;;;;;;4883992;29;20214;-66
2021/05/12 08:05:07;;;;;;;5.40;4.90;;;11.70;99.90;;;;;;4894216;29;20487;-65
2021/05/12 08:07:33;;;;;;;8.03;5.20;;;11.60;99.90;;;;;;4884144;29;20716;-66
2021/05/12 08:09:59;;;;;;;5.60;5.20;;;11.50;99.90;;;;;;4894440;29;20667;-65
2021/05/12 08:12:25;;;;;;;4.53;4.00;;;11.50;99.90;;;;;;4895518;29;20448;-65
2021/05/12 08:14:50;;;;;;;5.23;4.57;;;11.50;99.90;;;;;;4887855;29;20534;-65
2021/05/12 08:17:16;;;;;;;5.10;4.60;;;11.50;99.90;;;;;;4888748;29;20684;-65
2021/05/12 08:19:41;;;;;;;6.40;4.60;;;11.40;99.90;;;;;;4884660;29;20211;-65
2021/05/12 08:22:08;;;;;;;5.30;4.83;;;11.50;99.90;;;;;;4879235;29;20234;-65
2021/05/12 08:24:34;;;;;;;7.20;3.97;;;11.60;99.90;;;;;;4882449;29;20972;-65
2021/05/12 08:27:04;;;;;;;5.07;3.93;;;11.80;99.90;;;;;;4879927;29;20440;-65
2021/05/12 08:29:36;;;;;;;4.83;4.30;;;11.80;99.90;;;;;;4892036;29;20190;-65
2021/05/12 08:32:04;;;;;;;5.47;3.80;;;11.90;99.90;;;;;;4894913;29;20502;-64
2021/05/12 08:34:30;;;;;;;4.93;4.07;;;11.90;99.90;;;;;;4884747;29;20483;-65
2021/05/12 08:36:56;;;;;;;4.40;3.70;;;11.90;99.90;;;;;;4884374;29;20443;-65
2021/05/12 08:39:22;;;;;;;4.77;4.37;;;11.90;99.90;;;;;;4881518;29;20578;-65
2021/05/12 08:41:49;;;;;;;4.50;3.23;;;12.00;99.90;;;;;;4893611;29;20653;-66
2021/05/12 08:44:16;;;;;;;5.17;4.57;;;12.00;99.90;;;;;;4883509;29;20203;-65
2021/05/12 08:46:43;;;;;;;4.20;3.80;;;12.00;99.90;;;;;;4891472;29;20792;-65
2021/05/12 08:49:11;;;;;;;4.33;3.93;;;12.00;99.90;;;;;;4892074;29;21033;-65
2021/05/12 08:51:37;;;;;;;5.43;3.63;;;12.10;99.90;;;;;;4879700;29;20440;-65
2021/05/12 08:54:04;;;;;;;5.53;4.70;;;12.20;99.90;;;;;;4887716;29;20479;-66
2021/05/12 08:56:29;;;;;;;3.80;3.33;;;12.30;99.90;;;;;;4897329;29;20440;-65
2021/05/12 08:58:56;;;;;;;4.50;3.77;;;12.30;99.90;;;;;;4880821;29;20475;-66
2021/05/12 09:01:21;;;;;;;3.50;3.20;;;12.40;99.90;;;;;;4889499;29;20171;-68
2021/05/12 09:03:47;;;;;;;4.77;4.03;;;12.30;99.90;;;;;;4889186;29;20510;-66
2021/05/12 09:06:13;;;;;;;4.10;3.80;;;12.10;99.90;;;;;;4888214;29;20243;-66
2021/05/12 09:08:39;;;;;;;4.33;3.10;;;12.10;99.90;;;;;;4891961;29;20191;-66
2021/05/12 09:11:05;;;;;;;7.57;3.80;;;12.10;99.90;;;;;;4885421;29;20194;-66
2021/05/12 09:13:39;;;;;;;6.80;3.33;;;12.20;99.90;;;;;;4882208;29;20455;-66
2021/05/12 09:16:24;;;;;;;5.00;3.83;;;12.30;99.90;;;;;;4890341;29;20458;-66
2021/05/12 09:19:08;;;;;;;3.83;3.00;;;12.40;99.90;;;;;;4877778;29;20472;-66
2021/05/12 09:21:56;;;;;;;5.17;3.60;;;12.50;99.90;;;;;;4880103;29;21041;-66
2021/05/12 09:24:26;;;;;;;4.73;3.60;;;12.60;99.90;;;;;;4881995;29;20461;-66
2021/05/12 09:26:54;;;;;;;3.30;3.10;;;12.60;99.90;;;;;;4892756;29;20435;-66
2021/05/12 09:29:32;;;;;;;6.13;3.50;;;12.70;99.90;;;;;;4883349;29;20440;-66
2021/05/12 09:32:10;;;;;;;4.00;3.40;;;12.70;99.90;;;;;;4888039;29;20459;-66
2021/05/12 09:35:02;;;;;;;5.13;3.20;;;12.50;99.90;;;;;;4879525;29;20483;-66
2021/05/12 09:37:37;;;;;;;7.97;4.33;;;12.70;99.90;;;;;;4881887;29;20439;-66
2021/05/12 09:40:05;;;;;;;6.20;3.63;;;12.60;99.90;;;;;;4891856;29;20465;-66
2021/05/12 09:42:30;;;;;;;3.23;2.93;;;12.50;99.90;;;;;;4885336;29;20436;-66
2021/05/12 09:45:15;;;;;;;3.67;3.17;;;12.70;99.90;;;;;;4884747;29;20502;-65
2021/05/12 09:47:43;;;;;;;5.47;3.37;;;12.80;99.90;;;;;;4885543;29;20171;-65
2021/05/12 09:50:09;;;;;;;4.47;3.70;;;12.90;99.90;;;;;;4885825;29;20444;-65
2021/05/12 09:52:35;;;;;;;6.63;3.00;;;13.00;99.90;;;;;;4883538;29;20809;-65
2021/05/12 09:55:03;;;;;;;3.93;3.57;;;13.10;99.90;;;;;;4884882;29;20455;-65
2021/05/12 09:57:29;;;;;;;3.77;3.43;;;13.10;99.90;;;;;;4887967;29;20525;-67
2021/05/12 09:59:54;;;;;;;4.37;2.80;;;13.20;99.90;;;;;;4886157;29;20467;-65
2021/05/12 10:02:20;;;;;;;3.87;3.53;;;13.00;99.90;;;;;;4891220;29;20244;-65
2021/05/12 10:04:48;;;;;;;5.13;3.87;;;13.00;99.90;;;;;;4878326;29;20539;-65
2021/05/12 10:07:24;;;;;;;4.80;3.57;;;13.00;99.90;;;;;;4889261;29;20194;-68
2021/05/12 10:09:55;;;;;;;4.47;3.80;;;13.10;99.90;;;;;;4882421;29;20444;-66
2021/05/12 10:12:24;;;;;;;3.97;3.57;;;13.20;99.90;;;;;;4877603;29;20420;-66
2021/05/12 10:14:55;;;;;;;3.73;3.13;;;13.40;99.90;;;;;;4876734;29;20929;-66
2021/05/12 10:17:22;;;;;;;4.47;4.00;;;13.40;99.90;;;;;;4877608;29;20443;-66
2021/05/12 10:19:49;;;;;;;7.00;3.50;;;13.50;99.90;;;;;;4877175;29;20475;-66
2021/05/12 10:22:16;;;;;;;3.90;3.50;;;13.50;99.90;;;;;;4877454;29;20416;-66
2021/05/12 10:24:44;;;;;;;6.33;4.13;;;13.60;99.90;;;;;;4877437;29;20497;-66
2021/05/12 10:27:14;;;;;;;4.20;2.97;;;13.50;99.90;;;;;;4879130;29;20427;-66
2021/05/12 10:29:44;;;;;;;7.70;3.90;;;13.60;99.90;;;;;;4895680;29;20477;-66
2021/05/12 10:32:27;;;;;;;4.30;3.47;;;13.30;99.90;;;;;;4896095;29;20422;-66
2021/05/12 10:35:05;;;;;;;4.03;3.23;;;13.20;99.90;;;;;;4896156;29;20529;-66
2021/05/12 10:37:35;;;;;;;5.63;4.17;;;13.10;99.90;;;;;;4895848;29;20954;-66
2021/05/12 10:40:18;;;;;;;4.17;3.60;;;13.20;99.90;;;;;;4895393;29;20463;-67
2021/05/12 10:45:57;;;;;;;4.63;3.83;;;13.20;99.90;;;;;;4895823;29;20415;-64
2021/05/12 10:48:43;;;;;;;6.00;4.80;;;13.20;99.90;;;;;;4895759;29;20419;-65
2021/05/12 10:51:24;;;;;;;3.97;3.67;;;13.20;99.90;;;;;;4895642;29;20564;-64
2021/05/12 10:53:52;;;;;;;4.57;4.17;;;13.40;99.90;;;;;;4896179;29;21160;-64
2021/05/12 10:56:19;;;;;;;5.20;3.90;;;13.40;99.90;;;;;;4895604;29;20419;-67
2021/05/12 10:59:00;;;;;;;6.27;3.77;;;13.40;99.90;;;;;;4895583;29;20961;-65
2021/05/12 11:01:49;;;;;;;3.80;3.07;;;13.30;99.90;;;;;;4895687;29;20482;-65
2021/05/12 11:04:16;;;;;;;6.40;4.00;;;13.40;99.90;;;;;;4889043;29;20455;-66
2021/05/12 11:06:42;;;;;;;4.17;3.50;;;13.50;99.90;;;;;;4895474;29;20423;-66
2021/05/12 11:09:18;;;;;;;6.50;4.20;;;13.50;99.90;;;;;;4899072;29;20431;-66
2021/05/12 11:11:44;;;;;;;4.57;3.73;;;13.60;99.90;;;;;;4899215;29;20430;-66
2021/05/12 11:14:32;;;;;;;4.33;3.77;;;13.70;99.90;;;;;;4899042;29;20447;-66
2021/05/12 11:17:03;;;;;;;9.10;3.80;;;13.80;99.90;;;;;;4899124;29;20179;-66
2021/05/12 11:19:41;;;;;;;7.73;6.90;;;13.80;99.90;;;;;;4897390;29;20829;-66
2021/05/12 11:33:20;;;;;;;3.90;3.47;;;14.40;99.90;;;;;;4898857;29;20567;-65
2021/05/12 11:35:49;;;;;;;4.17;3.80;;;14.50;99.90;;;;;;4898770;29;20419;-65
2021/05/12 11:38:19;;;;;;;3.43;2.93;;;14.40;99.90;;;;;;4898808;29;21037;-65
2021/05/12 11:41:08;;;;;;;4.07;3.77;;;14.40;99.90;;;;;;4898401;29;20875;-65
2021/05/12 11:43:44;;;;;;;5.10;3.40;;;14.50;99.90;;;;;;4898643;29;20544;-65
2021/05/12 11:46:15;;;;;;;4.17;3.17;;;14.60;99.90;;;;;;4898691;29;20411;-65
2021/05/12 11:48:47;;;;;;;7.17;3.03;;;14.60;99.90;;;;;;4898325;29;20514;-65
2021/05/12 11:51:23;;;;;;;3.33;2.50;;;14.80;99.90;;;;;;4898802;29;20423;-65
2021/05/12 11:53:49;;;;;;;3.63;3.07;;;14.80;99.90;;;;;;4898404;29;20447;-65
2021/05/12 11:56:14;;;;;;;5.50;3.70;;;14.70;99.90;;;;;;4898618;29;20821;-65
2021/05/12 11:58:41;;;;;;;4.03;3.70;;;14.60;99.90;;;;;;4898883;29;20568;-65
2021/05/12 12:01:12;;;;;;;4.40;3.13;;;14.40;99.90;;;;;;4898822;29;20183;-65
2021/05/12 12:03:42;;;;;;;3.63;3.23;;;14.60;99.90;;;;;;4898419;29;20447;-65
2021/05/12 12:06:07;;;;;;;5.03;3.80;;;14.70;99.90;;;;;;4898427;29;20462;-65
2021/05/12 12:08:33;;;;;;;4.03;3.30;;;14.70;99.90;;;;;;4898122;29;20455;-66
2021/05/12 12:11:26;;;;;;;4.40;2.87;;;14.80;99.90;;;;;;4898514;29;20179;-65
2021/05/12 12:13:58;;;;;;;3.63;3.33;;;14.90;99.90;;;;;;4896225;29;20214;-65
2021/05/12 12:16:24;;;;;;;3.53;3.20;;;14.80;99.90;;;;;;4898242;29;20745;-65
2021/05/12 12:18:50;;;;;;;3.70;3.40;;;14.80;99.90;;;;;;4897555;29;20462;-65
2021/05/12 12:21:26;;;;;;;6.03;3.67;;;14.60;99.90;;;;;;4898018;29;20171;-65
2021/05/12 12:23:51;;;;;;;5.90;3.27;;;14.60;99.90;;;;;;4897856;29;20471;-65
2021/05/12 12:26:20;;;;;;;3.03;2.73;;;14.90;99.90;;;;;;4897966;29;20455;-65
2021/05/12 12:28:53;;;;;;;5.00;3.50;;;15.10;99.90;;;;;;4897569;29;20183;-65
2021/05/12 12:31:27;;;;;;;3.63;3.33;;;15.20;99.90;;;;;;4898038;29;20438;-65
2021/05/12 12:34:14;;;;;;;4.37;3.20;;;15.20;99.90;;;;;;4918449;23;21014;-65
2021/05/12 12:37:09;;;;;;;8.63;2.97;;;15.40;99.90;;;;;;4897735;29;20481;-65
2021/05/12 12:39:50;;;;;;;6.30;2.73;;;15.70;99.90;;;;;;4896792;29;20463;-65
2021/05/12 12:42:22;;;;;;;3.83;3.40;;;15.90;99.90;;;;;;4897652;29;20429;-65
2021/05/12 12:44:48;;;;;;;3.30;2.60;;;16.00;99.90;;;;;;4897232;29;20986;-65
2021/05/12 12:47:24;;;;;;;5.20;3.10;;;16.30;99.90;;;;;;4897566;29;20451;-65
2021/05/12 12:50:00;;;;;;;4.80;3.03;;;16.40;99.90;;;;;;4896791;29;20422;-65
2021/05/12 12:52:40;;;;;;;3.40;2.70;;;16.50;99.90;;;;;;4897409;29;20433;-65
2021/05/12 12:55:14;;;;;;;3.90;2.87;;;16.50;99.90;;;;;;4897341;29;20445;-65
2021/05/12 12:57:48;;;;;;;5.60;3.73;;;16.30;99.90;;;;;;4897507;29;20446;-65
2021/05/12 13:00:23;;;;;;;4.50;2.90;;;16.40;99.90;;;;;;4896365;29;20459;-64
2021/05/12 13:03:11;;;;;;;4.67;3.03;;;16.50;99.90;;;;;;4897337;29;20430;-65
2021/05/12 13:05:40;;;;;;;2.90;2.70;;;16.30;99.90;;;;;;4896762;29;20955;-64
2021/05/12 13:08:15;;;;;;;5.73;2.50;;;16.40;99.90;;;;;;4897287;29;20408;-64
2021/05/12 13:10:42;;;;;;;3.40;3.20;;;16.50;99.90;;;;;;4896173;29;20434;-64